DAL841 KSLC-KLAX
Flight info
| Callsign | DAL841 |
|---|---|
| Flight time | 1h 24m |
| Altitude | 36000 |
| Route | ARCHZ1 WINEN Q842 BLIPP Q70 LAS OTOOL ANJLL |
| Aircraft | B738/M-SDFGILORW/S |
Departure
| Time | 2026-04-26 10:20 |
|---|---|
| Airport | Salt Lake City International Airport (KSLC) |
Arrival
| Time | 2026-04-26 11:45 |
|---|---|
| Airport | Los Angeles International Airport (KLAX) |
| Time | Latitude | Longitude | Altitude | Speed | Heading |
|---|---|---|---|---|---|
| 2026-04-26 09:36 | 40.78556 | -111.97804 | 4227 ft | 0 kts | 227° |
| 2026-04-26 10:01 | 40.78557 | -111.97803 | 4227 ft | 1 kts | 227° |
| 2026-04-26 10:01 | 40.78566 | -111.97789 | 4227 ft | 2 kts | 230° |
| 2026-04-26 10:01 | 40.78576 | -111.97774 | 4227 ft | 2 kts | 229° |
| 2026-04-26 10:01 | 40.78586 | -111.97759 | 4227 ft | 2 kts | 229° |
| 2026-04-26 10:02 | 40.78595 | -111.97745 | 4227 ft | 2 kts | 229° |
| 2026-04-26 10:02 | 40.78605 | -111.97729 | 4227 ft | 2 kts | 229° |
| 2026-04-26 10:02 | 40.78615 | -111.97714 | 4226 ft | 2 kts | 229° |
| 2026-04-26 10:02 | 40.78625 | -111.97700 | 4226 ft | 2 kts | 229° |
| 2026-04-26 10:03 | 40.78634 | -111.97684 | 4226 ft | 2 kts | 229° |
| 2026-04-26 10:03 | 40.78644 | -111.97670 | 4226 ft | 2 kts | 229° |
| 2026-04-26 10:03 | 40.78654 | -111.97655 | 4225 ft | 2 kts | 229° |
| 2026-04-26 10:03 | 40.78663 | -111.97640 | 4225 ft | 2 kts | 229° |
| 2026-04-26 10:04 | 40.78673 | -111.97626 | 4225 ft | 2 kts | 229° |
| 2026-04-26 10:04 | 40.78682 | -111.97612 | 4225 ft | 0 kts | 229° |
| 2026-04-26 10:04 | 40.78689 | -111.97603 | 4225 ft | 1 kts | 197° |
| 2026-04-26 10:04 | 40.78697 | -111.97603 | 4225 ft | 0 kts | 165° |
| 2026-04-26 10:05 | 40.78704 | -111.97604 | 4225 ft | 0 kts | 173° |
| 2026-04-26 10:10 | 40.78702 | -111.97604 | 4225 ft | 1 kts | 176° |
| 2026-04-26 10:10 | 40.78692 | -111.97606 | 4225 ft | 1 kts | 194° |
| 2026-04-26 10:10 | 40.78672 | -111.97615 | 4225 ft | 4 kts | 205° |
| 2026-04-26 10:11 | 40.78656 | -111.97665 | 4225 ft | 5 kts | 297° |
| 2026-04-26 10:11 | 40.78691 | -111.97671 | 4225 ft | 7 kts | 354° |
| 2026-04-26 10:11 | 40.78764 | -111.97678 | 4225 ft | 12 kts | 347° |
| 2026-04-26 10:11 | 40.78842 | -111.97693 | 4225 ft | 10 kts | 355° |
| 2026-04-26 10:12 | 40.78902 | -111.97699 | 4225 ft | 7 kts | 356° |
| 2026-04-26 10:12 | 40.78949 | -111.97703 | 4225 ft | 8 kts | 355° |
| 2026-04-26 10:12 | 40.79035 | -111.97713 | 4225 ft | 16 kts | 355° |
| 2026-04-26 10:12 | 40.79175 | -111.97726 | 4224 ft | 21 kts | 347° |
| 2026-04-26 10:13 | 40.79236 | -111.97829 | 4222 ft | 13 kts | 319° |
| 2026-04-26 10:13 | 40.79267 | -111.97989 | 4222 ft | 25 kts | 263° |
| 2026-04-26 10:13 | 40.79244 | -111.98277 | 4222 ft | 38 kts | 264° |
| 2026-04-26 10:13 | 40.79219 | -111.98671 | 4224 ft | 39 kts | 263° |
| 2026-04-26 10:14 | 40.79205 | -111.98904 | 4225 ft | 15 kts | 265° |
| 2026-04-26 10:14 | 40.79198 | -111.99031 | 4225 ft | 12 kts | 265° |
| 2026-04-26 10:14 | 40.79190 | -111.99152 | 4225 ft | 14 kts | 265° |
| 2026-04-26 10:14 | 40.79181 | -111.99290 | 4225 ft | 15 kts | 260° |
| 2026-04-26 10:15 | 40.79169 | -111.99403 | 4225 ft | 13 kts | 263° |
| 2026-04-26 10:15 | 40.79188 | -111.99515 | 4225 ft | 13 kts | 338° |
| 2026-04-26 10:15 | 40.79290 | -111.99531 | 4225 ft | 16 kts | 353° |
| 2026-04-26 10:15 | 40.79409 | -111.99548 | 4225 ft | 18 kts | 354° |
| 2026-04-26 10:16 | 40.79547 | -111.99560 | 4225 ft | 20 kts | 358° |
| 2026-04-26 10:16 | 40.79688 | -111.99581 | 4227 ft | 20 kts | 355° |
| 2026-04-26 10:16 | 40.79829 | -111.99598 | 4229 ft | 21 kts | 355° |
| 2026-04-26 10:16 | 40.79983 | -111.99612 | 4229 ft | 23 kts | 355° |
| 2026-04-26 10:17 | 40.80145 | -111.99632 | 4229 ft | 22 kts | 353° |
| 2026-04-26 10:17 | 40.80300 | -111.99651 | 4226 ft | 23 kts | 355° |
| 2026-04-26 10:17 | 40.80460 | -111.99671 | 4225 ft | 22 kts | 355° |
| 2026-04-26 10:17 | 40.80616 | -111.99686 | 4225 ft | 20 kts | 352° |
| 2026-04-26 10:18 | 40.80745 | -111.99712 | 4225 ft | 16 kts | 339° |
| 2026-04-26 10:18 | 40.80777 | -111.99780 | 4225 ft | 1 kts | 275° |
| 2026-04-26 10:18 | 40.80777 | -111.99781 | 4225 ft | 0 kts | 275° |
| 2026-04-26 10:19 | 40.80777 | -111.99804 | 4225 ft | 5 kts | 259° |
| 2026-04-26 10:19 | 40.80761 | -111.99871 | 4225 ft | 9 kts | 249° |
| 2026-04-26 10:19 | 40.80707 | -111.99919 | 4225 ft | 11 kts | 179° |
| 2026-04-26 10:20 | 40.80409 | -111.99877 | 4225 ft | 86 kts | 175° |
| 2026-04-26 10:20 | 40.79559 | -111.99783 | 4278 ft | 154 kts | 171° |
| 2026-04-26 10:20 | 40.78426 | -111.99667 | 4889 ft | 177 kts | 177° |
| 2026-04-26 10:20 | 40.77184 | -111.99530 | 5701 ft | 190 kts | 174° |
| 2026-04-26 10:21 | 40.75761 | -111.99347 | 6120 ft | 226 kts | 176° |
| 2026-04-26 10:21 | 40.74173 | -111.99170 | 6978 ft | 239 kts | 177° |
| 2026-04-26 10:21 | 40.72440 | -111.98970 | 7755 ft | 261 kts | 177° |
| 2026-04-26 10:21 | 40.70602 | -111.98767 | 8666 ft | 276 kts | 177° |
| 2026-04-26 10:22 | 40.68668 | -111.98557 | 9686 ft | 287 kts | 177° |
| 2026-04-26 10:22 | 40.66666 | -111.98345 | 10584 ft | 300 kts | 177° |
| 2026-04-26 10:22 | 40.64508 | -111.98122 | 11039 ft | 327 kts | 176° |
| 2026-04-26 10:22 | 40.62209 | -111.97881 | 11714 ft | 345 kts | 176° |
| 2026-04-26 10:23 | 40.59877 | -111.97632 | 12520 ft | 355 kts | 175° |
| 2026-04-26 10:23 | 40.57402 | -111.97360 | 13445 ft | 362 kts | 175° |
| 2026-04-26 10:23 | 40.54922 | -111.97080 | 14351 ft | 368 kts | 175° |
| 2026-04-26 10:23 | 40.52361 | -111.96792 | 15236 ft | 373 kts | 175° |
| 2026-04-26 10:24 | 40.49765 | -111.96502 | 16101 ft | 378 kts | 175° |
| 2026-04-26 10:24 | 40.47158 | -111.96213 | 16916 ft | 384 kts | 175° |
| 2026-04-26 10:24 | 40.44479 | -111.95918 | 17735 ft | 388 kts | 175° |
| 2026-04-26 10:24 | 40.41801 | -111.95622 | 18503 ft | 393 kts | 175° |
| 2026-04-26 10:25 | 40.39060 | -111.95321 | 19261 ft | 398 kts | 175° |
| 2026-04-26 10:25 | 40.36295 | -111.95018 | 19986 ft | 403 kts | 175° |
| 2026-04-26 10:25 | 40.33513 | -111.94713 | 20688 ft | 407 kts | 175° |
| 2026-04-26 10:25 | 40.30693 | -111.94411 | 21354 ft | 412 kts | 176° |
| 2026-04-26 10:26 | 40.27819 | -111.94305 | 22008 ft | 416 kts | 182° |
| 2026-04-26 10:26 | 40.24966 | -111.94576 | 22634 ft | 420 kts | 186° |
| 2026-04-26 10:26 | 40.22034 | -111.94975 | 23242 ft | 424 kts | 186° |
| 2026-04-26 10:26 | 40.19106 | -111.95374 | 23826 ft | 428 kts | 186° |
| 2026-04-26 10:27 | 40.16130 | -111.95782 | 24394 ft | 432 kts | 186° |
| 2026-04-26 10:27 | 40.13157 | -111.96197 | 24943 ft | 436 kts | 186° |
| 2026-04-26 10:27 | 40.10160 | -111.96619 | 25468 ft | 440 kts | 186° |
| 2026-04-26 10:27 | 40.07127 | -111.97050 | 25980 ft | 443 kts | 186° |
| 2026-04-26 10:28 | 40.04039 | -111.97490 | 26480 ft | 447 kts | 186° |
| 2026-04-26 10:28 | 40.00957 | -111.97931 | 26963 ft | 450 kts | 186° |
| 2026-04-26 10:28 | 39.97858 | -111.98376 | 27423 ft | 454 kts | 186° |
| 2026-04-26 10:28 | 39.94726 | -111.98825 | 27879 ft | 457 kts | 186° |
| 2026-04-26 10:29 | 39.91542 | -111.99282 | 28318 ft | 460 kts | 186° |
| 2026-04-26 10:29 | 39.88382 | -111.99736 | 28735 ft | 463 kts | 186° |
| 2026-04-26 10:29 | 39.85169 | -112.00198 | 29143 ft | 466 kts | 186° |
| 2026-04-26 10:29 | 39.81973 | -112.00656 | 29536 ft | 469 kts | 186° |
| 2026-04-26 10:30 | 39.78725 | -112.01122 | 29926 ft | 472 kts | 186° |
| 2026-04-26 10:30 | 39.75450 | -112.01592 | 30300 ft | 474 kts | 186° |
| 2026-04-26 10:30 | 39.72204 | -112.02057 | 30672 ft | 477 kts | 186° |
| 2026-04-26 10:30 | 39.68900 | -112.02530 | 31085 ft | 478 kts | 186° |
| 2026-04-26 10:31 | 39.65625 | -112.02998 | 31499 ft | 478 kts | 186° |
| 2026-04-26 10:31 | 39.62350 | -112.03467 | 31929 ft | 478 kts | 186° |
| 2026-04-26 10:31 | 39.59025 | -112.03941 | 32369 ft | 478 kts | 186° |
| 2026-04-26 10:31 | 39.55747 | -112.04410 | 32801 ft | 478 kts | 186° |
| 2026-04-26 10:32 | 39.52474 | -112.04876 | 33233 ft | 477 kts | 185° |
| 2026-04-26 10:32 | 39.49191 | -112.05344 | 33662 ft | 477 kts | 185° |
| 2026-04-26 10:32 | 39.45902 | -112.05812 | 34094 ft | 476 kts | 185° |
| 2026-04-26 10:32 | 39.42635 | -112.06276 | 34522 ft | 475 kts | 185° |
| 2026-04-26 10:33 | 39.39328 | -112.06745 | 34941 ft | 474 kts | 185° |
| 2026-04-26 10:33 | 39.36080 | -112.07206 | 35357 ft | 474 kts | 185° |
| 2026-04-26 10:33 | 39.32814 | -112.07669 | 35725 ft | 472 kts | 185° |
| 2026-04-26 10:33 | 39.29575 | -112.08128 | 35791 ft | 471 kts | 185° |
| 2026-04-26 10:34 | 39.23169 | -112.09035 | 35792 ft | 463 kts | 185° |
| 2026-04-26 10:34 | 39.16813 | -112.10235 | 35798 ft | 463 kts | 194° |
| 2026-04-26 10:35 | 39.10990 | -112.13643 | 35799 ft | 465 kts | 217° |
| 2026-04-26 10:35 | 39.06178 | -112.19087 | 35801 ft | 465 kts | 224° |
| 2026-04-26 10:36 | 39.01433 | -112.24724 | 35798 ft | 463 kts | 223° |
| 2026-04-26 10:36 | 38.96753 | -112.30260 | 35798 ft | 457 kts | 224° |
| 2026-04-26 10:37 | 38.92146 | -112.35708 | 35798 ft | 451 kts | 224° |
| 2026-04-26 10:37 | 38.87562 | -112.41120 | 35798 ft | 448 kts | 223° |
| 2026-04-26 10:38 | 38.82964 | -112.46542 | 35799 ft | 448 kts | 223° |
| 2026-04-26 10:38 | 38.78412 | -112.51897 | 35798 ft | 449 kts | 223° |
| 2026-04-26 10:39 | 38.73808 | -112.57308 | 35798 ft | 449 kts | 223° |
| 2026-04-26 10:39 | 38.69211 | -112.62700 | 35791 ft | 449 kts | 223° |
| 2026-04-26 10:40 | 38.64637 | -112.68057 | 35783 ft | 449 kts | 223° |
| 2026-04-26 10:40 | 38.60028 | -112.73444 | 35775 ft | 449 kts | 223° |
| 2026-04-26 10:41 | 38.55423 | -112.78817 | 35754 ft | 449 kts | 223° |
| 2026-04-26 10:41 | 38.50820 | -112.84178 | 35752 ft | 450 kts | 223° |
| 2026-04-26 10:42 | 38.46225 | -112.89523 | 35753 ft | 451 kts | 222° |
| 2026-04-26 10:42 | 38.41566 | -112.94928 | 35752 ft | 452 kts | 222° |
| 2026-04-26 10:43 | 38.36883 | -113.00225 | 35751 ft | 452 kts | 218° |
| 2026-04-26 10:43 | 38.31712 | -113.04702 | 35754 ft | 450 kts | 212° |
| 2026-04-26 10:44 | 38.26484 | -113.09015 | 35752 ft | 450 kts | 212° |
| 2026-04-26 10:44 | 38.21232 | -113.13322 | 35753 ft | 450 kts | 212° |
| 2026-04-26 10:45 | 38.15996 | -113.17588 | 35754 ft | 450 kts | 212° |
| 2026-04-26 10:45 | 38.10731 | -113.21860 | 35757 ft | 450 kts | 212° |
| 2026-04-26 10:46 | 38.05465 | -113.26122 | 35760 ft | 450 kts | 212° |
| 2026-04-26 10:46 | 38.00200 | -113.30371 | 35762 ft | 450 kts | 212° |
| 2026-04-26 10:47 | 37.94928 | -113.34618 | 35762 ft | 450 kts | 212° |
| 2026-04-26 10:47 | 37.89639 | -113.38869 | 35762 ft | 450 kts | 212° |
| 2026-04-26 10:48 | 37.84352 | -113.43093 | 35762 ft | 450 kts | 212° |
| 2026-04-26 10:48 | 37.79084 | -113.47291 | 35761 ft | 450 kts | 212° |
| 2026-04-26 10:49 | 37.73818 | -113.51482 | 35762 ft | 450 kts | 212° |
| 2026-04-26 10:49 | 37.68545 | -113.55671 | 35762 ft | 450 kts | 212° |
| 2026-04-26 10:50 | 37.64159 | -113.59151 | 35764 ft | 450 kts | 212° |
| 2026-04-26 10:50 | 37.57986 | -113.64038 | 35770 ft | 450 kts | 212° |
| 2026-04-26 10:51 | 37.50055 | -113.70306 | 35777 ft | 450 kts | 211° |
| 2026-04-26 10:52 | 37.44772 | -113.74470 | 35779 ft | 450 kts | 211° |
| 2026-04-26 10:52 | 37.39489 | -113.78629 | 35780 ft | 450 kts | 211° |
| 2026-04-26 10:53 | 37.34181 | -113.82801 | 35780 ft | 450 kts | 211° |
| 2026-04-26 10:53 | 37.28889 | -113.86952 | 35780 ft | 450 kts | 211° |
| 2026-04-26 10:54 | 37.20957 | -113.93161 | 35780 ft | 450 kts | 211° |
| 2026-04-26 10:54 | 37.15645 | -113.97311 | 35780 ft | 450 kts | 211° |
| 2026-04-26 10:55 | 37.10345 | -114.01444 | 35780 ft | 450 kts | 211° |
| 2026-04-26 10:55 | 37.05074 | -114.05555 | 35780 ft | 444 kts | 210° |
| 2026-04-26 10:56 | 36.99932 | -114.09481 | 35778 ft | 426 kts | 210° |
| 2026-04-26 10:56 | 36.94866 | -114.13148 | 35780 ft | 420 kts | 211° |
| 2026-04-26 10:57 | 36.89835 | -114.16866 | 35782 ft | 423 kts | 213° |
| 2026-04-26 10:57 | 36.84901 | -114.20822 | 35780 ft | 423 kts | 214° |
| 2026-04-26 10:58 | 36.79990 | -114.24787 | 35779 ft | 423 kts | 214° |
| 2026-04-26 10:58 | 36.75014 | -114.28707 | 35772 ft | 423 kts | 213° |
| 2026-04-26 10:59 | 36.70018 | -114.32557 | 35764 ft | 423 kts | 213° |
| 2026-04-26 10:59 | 36.65031 | -114.36370 | 35755 ft | 423 kts | 213° |
| 2026-04-26 11:00 | 36.60049 | -114.40166 | 35747 ft | 423 kts | 213° |
| 2026-04-26 11:00 | 36.55021 | -114.43984 | 35738 ft | 423 kts | 213° |
| 2026-04-26 11:01 | 36.50001 | -114.47788 | 35729 ft | 423 kts | 213° |
| 2026-04-26 11:01 | 36.44991 | -114.51583 | 35729 ft | 423 kts | 213° |
| 2026-04-26 11:02 | 36.40039 | -114.55401 | 35743 ft | 423 kts | 213° |
| 2026-04-26 11:02 | 36.35038 | -114.59250 | 35751 ft | 423 kts | 213° |
| 2026-04-26 11:03 | 36.30046 | -114.63084 | 35753 ft | 423 kts | 213° |
| 2026-04-26 11:03 | 36.25046 | -114.66917 | 35757 ft | 423 kts | 213° |
| 2026-04-26 11:04 | 36.20059 | -114.70729 | 35768 ft | 423 kts | 213° |
| 2026-04-26 11:04 | 36.15078 | -114.74535 | 35782 ft | 423 kts | 213° |
| 2026-04-26 11:05 | 36.10077 | -114.78349 | 35779 ft | 423 kts | 213° |
| 2026-04-26 11:05 | 36.05072 | -114.82161 | 35779 ft | 423 kts | 213° |
| 2026-04-26 11:06 | 36.00267 | -114.86285 | 35785 ft | 422 kts | 220° |
| 2026-04-26 11:06 | 35.96171 | -114.91363 | 35791 ft | 421 kts | 229° |
| 2026-04-26 11:07 | 35.92298 | -114.96819 | 35789 ft | 421 kts | 229° |
| 2026-04-26 11:07 | 35.88458 | -115.02239 | 35791 ft | 425 kts | 229° |
| 2026-04-26 11:08 | 35.84567 | -115.07743 | 35793 ft | 429 kts | 229° |
| 2026-04-26 11:08 | 35.80624 | -115.13323 | 35795 ft | 433 kts | 229° |
| 2026-04-26 11:09 | 35.76678 | -115.18902 | 35797 ft | 437 kts | 229° |
| 2026-04-26 11:09 | 35.72695 | -115.24526 | 35798 ft | 439 kts | 229° |
| 2026-04-26 11:10 | 35.68697 | -115.30161 | 35798 ft | 438 kts | 229° |
| 2026-04-26 11:10 | 35.64695 | -115.35794 | 35798 ft | 438 kts | 229° |
| 2026-04-26 11:11 | 35.60686 | -115.41428 | 35798 ft | 438 kts | 229° |
| 2026-04-26 11:11 | 35.56693 | -115.47031 | 35798 ft | 438 kts | 229° |
| 2026-04-26 11:12 | 35.52705 | -115.52618 | 35798 ft | 438 kts | 229° |
| 2026-04-26 11:12 | 35.48689 | -115.58235 | 35798 ft | 438 kts | 229° |
| 2026-04-26 11:13 | 35.44676 | -115.63838 | 35798 ft | 438 kts | 229° |
| 2026-04-26 11:13 | 35.40672 | -115.69418 | 35799 ft | 438 kts | 229° |
| 2026-04-26 11:14 | 35.36647 | -115.75017 | 35805 ft | 438 kts | 229° |
| 2026-04-26 11:14 | 35.32647 | -115.80575 | 35814 ft | 438 kts | 229° |
| 2026-04-26 11:15 | 35.28613 | -115.86169 | 35823 ft | 438 kts | 229° |
| 2026-04-26 11:15 | 35.24606 | -115.91719 | 35831 ft | 438 kts | 229° |
| 2026-04-26 11:16 | 35.20575 | -115.97292 | 35835 ft | 438 kts | 229° |
| 2026-04-26 11:16 | 35.16562 | -116.02831 | 35835 ft | 437 kts | 229° |
| 2026-04-26 11:17 | 35.12539 | -116.08375 | 35835 ft | 438 kts | 229° |
| 2026-04-26 11:17 | 35.08495 | -116.13940 | 35835 ft | 438 kts | 229° |
| 2026-04-26 11:18 | 35.04483 | -116.19451 | 35835 ft | 438 kts | 229° |
| 2026-04-26 11:18 | 35.00457 | -116.24972 | 35841 ft | 433 kts | 228° |
| 2026-04-26 11:19 | 34.96493 | -116.30401 | 35846 ft | 424 kts | 228° |
| 2026-04-26 11:19 | 34.92614 | -116.35707 | 35845 ft | 416 kts | 228° |
| 2026-04-26 11:20 | 34.89243 | -116.39798 | 35839 ft | 411 kts | 220° |
| 2026-04-26 11:20 | 34.86205 | -116.42543 | 35640 ft | 400 kts | 215° |
| 2026-04-26 11:20 | 34.83919 | -116.44422 | 35016 ft | 396 kts | 215° |
| 2026-04-26 11:21 | 34.81647 | -116.46301 | 34351 ft | 401 kts | 215° |
| 2026-04-26 11:21 | 34.79335 | -116.48206 | 33646 ft | 404 kts | 214° |
| 2026-04-26 11:21 | 34.77042 | -116.50079 | 32928 ft | 402 kts | 214° |
| 2026-04-26 11:21 | 34.74723 | -116.51968 | 32192 ft | 409 kts | 214° |
| 2026-04-26 11:22 | 34.72342 | -116.53902 | 31413 ft | 411 kts | 214° |
| 2026-04-26 11:22 | 34.70010 | -116.55790 | 30642 ft | 410 kts | 213° |
| 2026-04-26 11:22 | 34.67635 | -116.57709 | 29841 ft | 417 kts | 213° |
| 2026-04-26 11:22 | 34.65240 | -116.59643 | 29252 ft | 407 kts | 213° |
| 2026-04-26 11:23 | 34.62920 | -116.61513 | 28666 ft | 404 kts | 213° |
| 2026-04-26 11:23 | 34.60563 | -116.63409 | 28063 ft | 408 kts | 213° |
| 2026-04-26 11:23 | 34.58237 | -116.65293 | 27816 ft | 397 kts | 213° |
| 2026-04-26 11:23 | 34.56027 | -116.67246 | 27829 ft | 391 kts | 215° |
| 2026-04-26 11:24 | 34.53870 | -116.69215 | 27837 ft | 392 kts | 215° |
| 2026-04-26 11:24 | 34.51689 | -116.71185 | 27837 ft | 394 kts | 215° |
| 2026-04-26 11:24 | 34.49470 | -116.73181 | 27835 ft | 395 kts | 215° |
| 2026-04-26 11:24 | 34.47283 | -116.75147 | 27835 ft | 394 kts | 215° |
| 2026-04-26 11:25 | 34.45070 | -116.77133 | 27835 ft | 395 kts | 215° |
| 2026-04-26 11:25 | 34.42876 | -116.79099 | 27835 ft | 394 kts | 215° |
| 2026-04-26 11:25 | 34.40705 | -116.81041 | 27799 ft | 391 kts | 215° |
| 2026-04-26 11:25 | 34.38545 | -116.82956 | 27207 ft | 383 kts | 214° |
| 2026-04-26 11:26 | 34.36424 | -116.84829 | 26669 ft | 380 kts | 214° |
| 2026-04-26 11:26 | 34.34341 | -116.86667 | 26145 ft | 385 kts | 214° |
| 2026-04-26 11:26 | 34.32223 | -116.88536 | 25608 ft | 376 kts | 214° |
| 2026-04-26 11:26 | 34.30126 | -116.90387 | 25082 ft | 374 kts | 214° |
| 2026-04-26 11:27 | 34.28018 | -116.92243 | 24551 ft | 378 kts | 214° |
| 2026-04-26 11:27 | 34.25951 | -116.94064 | 24032 ft | 369 kts | 214° |
| 2026-04-26 11:27 | 34.23915 | -116.95967 | 23503 ft | 372 kts | 218° |
| 2026-04-26 11:27 | 34.22080 | -116.98190 | 22952 ft | 375 kts | 228° |
| 2026-04-26 11:28 | 34.20702 | -117.00805 | 22405 ft | 372 kts | 240° |
| 2026-04-26 11:28 | 34.19722 | -117.03664 | 21860 ft | 381 kts | 248° |
| 2026-04-26 11:28 | 34.18901 | -117.06671 | 21285 ft | 377 kts | 249° |
| 2026-04-26 11:28 | 34.18095 | -117.09631 | 20726 ft | 372 kts | 248° |
| 2026-04-26 11:29 | 34.17268 | -117.12630 | 20162 ft | 379 kts | 248° |
| 2026-04-26 11:29 | 34.16452 | -117.15601 | 19590 ft | 372 kts | 248° |
| 2026-04-26 11:29 | 34.15645 | -117.18528 | 19031 ft | 367 kts | 248° |
| 2026-04-26 11:29 | 34.14827 | -117.21473 | 18471 ft | 371 kts | 248° |
| 2026-04-26 11:30 | 34.14017 | -117.24400 | 17904 ft | 365 kts | 248° |
| 2026-04-26 11:30 | 34.13516 | -117.26215 | 17554 ft | 361 kts | 248° |
| 2026-04-26 11:30 | 34.12514 | -117.29831 | 16852 ft | 365 kts | 248° |
| 2026-04-26 11:30 | 34.11758 | -117.32565 | 16347 ft | 358 kts | 248° |
| 2026-04-26 11:31 | 34.10980 | -117.35382 | 15821 ft | 356 kts | 248° |
| 2026-04-26 11:31 | 34.10221 | -117.38170 | 15275 ft | 358 kts | 250° |
| 2026-04-26 11:31 | 34.09516 | -117.40993 | 14720 ft | 353 kts | 251° |
| 2026-04-26 11:31 | 34.08815 | -117.43825 | 14170 ft | 351 kts | 250° |
| 2026-04-26 11:32 | 34.08107 | -117.46652 | 13621 ft | 352 kts | 250° |
| 2026-04-26 11:32 | 34.07424 | -117.49422 | 13204 ft | 343 kts | 252° |
| 2026-04-26 11:32 | 34.06923 | -117.52184 | 12880 ft | 335 kts | 258° |
| 2026-04-26 11:32 | 34.06536 | -117.54961 | 12347 ft | 338 kts | 258° |
| 2026-04-26 11:33 | 34.06158 | -117.57613 | 11863 ft | 334 kts | 258° |
| 2026-04-26 11:33 | 34.05765 | -117.60315 | 11375 ft | 329 kts | 257° |
| 2026-04-26 11:33 | 34.05370 | -117.63021 | 10887 ft | 324 kts | 257° |
| 2026-04-26 11:33 | 34.04997 | -117.65564 | 10473 ft | 317 kts | 256° |
| 2026-04-26 11:34 | 34.04625 | -117.68108 | 10243 ft | 304 kts | 256° |
| 2026-04-26 11:34 | 34.04271 | -117.70521 | 10124 ft | 289 kts | 256° |
| 2026-04-26 11:34 | 34.03932 | -117.72813 | 9824 ft | 282 kts | 256° |
| 2026-04-26 11:34 | 34.03589 | -117.75123 | 9460 ft | 278 kts | 256° |
| 2026-04-26 11:35 | 34.03253 | -117.77385 | 9112 ft | 274 kts | 256° |
| 2026-04-26 11:35 | 34.02921 | -117.79617 | 8769 ft | 270 kts | 256° |
| 2026-04-26 11:35 | 34.02591 | -117.81842 | 8427 ft | 266 kts | 256° |
| 2026-04-26 11:35 | 34.02267 | -117.84017 | 8094 ft | 261 kts | 256° |
| 2026-04-26 11:36 | 34.01951 | -117.86142 | 7769 ft | 262 kts | 256° |
| 2026-04-26 11:36 | 34.01624 | -117.88325 | 7432 ft | 261 kts | 256° |
| 2026-04-26 11:36 | 34.01308 | -117.90445 | 7104 ft | 257 kts | 256° |
| 2026-04-26 11:36 | 34.00995 | -117.92539 | 6782 ft | 252 kts | 256° |
| 2026-04-26 11:37 | 34.00682 | -117.94617 | 6467 ft | 255 kts | 256° |
| 2026-04-26 11:37 | 34.00370 | -117.96695 | 6143 ft | 252 kts | 257° |
| 2026-04-26 11:37 | 34.00062 | -117.98747 | 5826 ft | 248 kts | 257° |
| 2026-04-26 11:37 | 33.99754 | -118.00787 | 5509 ft | 243 kts | 257° |
| 2026-04-26 11:38 | 33.99458 | -118.02754 | 5208 ft | 239 kts | 257° |
| 2026-04-26 11:38 | 33.99167 | -118.04683 | 5040 ft | 229 kts | 257° |
| 2026-04-26 11:38 | 33.98888 | -118.06529 | 4975 ft | 216 kts | 257° |
| 2026-04-26 11:38 | 33.98626 | -118.08265 | 4903 ft | 205 kts | 257° |
| 2026-04-26 11:39 | 33.98359 | -118.10005 | 4832 ft | 212 kts | 257° |
| 2026-04-26 11:39 | 33.98112 | -118.11727 | 4724 ft | 204 kts | 260° |
| 2026-04-26 11:39 | 33.97964 | -118.13410 | 4445 ft | 205 kts | 262° |
| 2026-04-26 11:39 | 33.97802 | -118.15107 | 4167 ft | 205 kts | 261° |
| 2026-04-26 11:40 | 33.97622 | -118.16857 | 3888 ft | 209 kts | 262° |
| 2026-04-26 11:40 | 33.97440 | -118.18594 | 3607 ft | 208 kts | 262° |
| 2026-04-26 11:40 | 33.97256 | -118.20294 | 3375 ft | 205 kts | 261° |
| 2026-04-26 11:40 | 33.97071 | -118.21957 | 3170 ft | 196 kts | 262° |
| 2026-04-26 11:41 | 33.96901 | -118.23557 | 2895 ft | 186 kts | 266° |
| 2026-04-26 11:42 | 33.96061 | -118.31842 | 1519 ft | 130 kts | 265° |
| 2026-04-26 11:43 | 33.95952 | -118.32921 | 1341 ft | 128 kts | 265° |
| 2026-04-26 11:43 | 33.95844 | -118.33984 | 1172 ft | 129 kts | 265° |
| 2026-04-26 11:43 | 33.95736 | -118.35039 | 997 ft | 128 kts | 265° |
| 2026-04-26 11:43 | 33.95627 | -118.36111 | 831 ft | 130 kts | 265° |
| 2026-04-26 11:44 | 33.95514 | -118.37216 | 648 ft | 133 kts | 265° |
| 2026-04-26 11:44 | 33.95401 | -118.38318 | 468 ft | 134 kts | 264° |
| 2026-04-26 11:44 | 33.95286 | -118.39444 | 309 ft | 133 kts | 264° |
| 2026-04-26 11:44 | 33.95177 | -118.40504 | 131 ft | 120 kts | 264° |
| 2026-04-26 11:45 | 33.95097 | -118.41300 | 124 ft | 56 kts | 263° |
| 2026-04-26 11:45 | 33.95066 | -118.41592 | 122 ft | 27 kts | 263° |
| 2026-04-26 11:45 | 33.95020 | -118.41771 | 121 ft | 18 kts | 247° |
| 2026-04-26 11:45 | 33.94968 | -118.41877 | 121 ft | 12 kts | 234° |
| 2026-04-26 11:46 | 33.94923 | -118.41948 | 121 ft | 9 kts | 232° |
| 2026-04-26 11:46 | 33.94897 | -118.41991 | 121 ft | 7 kts | 234° |
| 2026-04-26 11:46 | 33.94838 | -118.42083 | 121 ft | 18 kts | 234° |
| 2026-04-26 11:46 | 33.94770 | -118.42194 | 119 ft | 14 kts | 232° |
| 2026-04-26 11:47 | 33.94712 | -118.42285 | 118 ft | 12 kts | 231° |
| 2026-04-26 11:47 | 33.94671 | -118.42360 | 117 ft | 10 kts | 251° |
| 2026-04-26 11:47 | 33.94657 | -118.42504 | 114 ft | 20 kts | 268° |
| 2026-04-26 11:47 | 33.94641 | -118.42652 | 111 ft | 16 kts | 263° |
| 2026-04-26 11:48 | 33.94607 | -118.42756 | 110 ft | 11 kts | 210° |
| 2026-04-26 11:48 | 33.94542 | -118.42770 | 109 ft | 6 kts | 226° |
| 2026-04-26 11:48 | 33.94534 | -118.42812 | 109 ft | 3 kts | 266° |
| 2026-04-26 11:48 | 33.94532 | -118.42846 | 108 ft | 5 kts | 266° |
| 2026-04-26 11:49 | 33.94527 | -118.42893 | 107 ft | 0 kts | 264° |